CYYHCYGT

Guest
Details From CYYH - TALOYOAK
To CYGT - Igloolik
Flight Number -
Tags generated
Created
Modified
Stats Distance 326 nm / 604 km
Max Altitude 35,000 ft / 10,668 m
Waypoints 4
Social Downloads 0
Likes 0
Share VATSIM

Download

Looking for another format? Having issues loading an existing format? Contact us
Advertisement - Login to hide

Notes

Basic altitude profile: - Ascent Rate: 300ft/min - Ascent Speed: 120kts - Cruise Altitude: 30ft - Cruise Speed: 160kts - Descent Rate: 600ft/min - Descent Speed: 160kts Options: - Use NATs: no - Use PACOTS: no - Use low airways: yes - Use high airways: no

Route

CYYH YBB RR30 UX CYGT

ID Type Via Altitude (ft/m) Position (lat/lon) Dist (leg/tot) Name
O CYYH APT - 0 / 0 69.54611 / -93.57611 - / 0 nm TALOYOAK
YBB NDB - 35,000 / 10,668 68.53500 / -89.78778 101 / 101 nm KUGAARUK NDB
UX NDB RR30 (AWY-LO) 8,100 / 2,469 68.76722 / -81.25639 186 / 288 nm HALL BEACH NDB
O CYGT APT - 0 / 0 69.36482 / -81.81709 37 / 326 nm Igloolik

Altitude Profile

Advertisement - Login to hide

Weather


0- 5 10 15 20 25 30 35+ Temperature / °C

Clouds and Precipitation
Forecast for 2018-12-18 12:00 UTC. Updated 5 hours ago

Ground ~20,000 ft ~40,000 ft Winds

CYYH

Details ICAO CYYH (YYH)
Name TALOYOAK
Region Canada
Timezone America/Cambridge_Bay (UTC-7.0)
Stats Elevation 92 ft / 28 m (AMSL)
Location 69.546100° -93.576100°
Runways 1
Magnetic Variation 12.259° W

METAR

CYYH 181400Z 18004KT 15SM IC SKC M36/M40 A2991 RMK FROIN SLP134

Decode

TAF

TAF CYYH 181138Z 1812/1824 VRB03KT P6SM IC SKC TEMPO 1812/1824 P6SM NSW RMK NXT FCST BY 181800Z

Decode

Departure Runways

ID Width Length Bearing (true/mag) Surface Threshold Overrun Markings Lighting
15T 100 ft / 30 m 4,008 ft / 1,222 m 151.85° / 164.11° GRAVEL 0 ft / 0 m 0 ft / 0 m VISUAL EDGE THRESHOLD REIL-OMNI
33T 100 ft / 30 m 4,008 ft / 1,222 m 331.87° / 344.12° GRAVEL 0 ft / 0 m 0 ft / 0 m VISUAL EDGE THRESHOLD REIL-OMNI

CYGT

Details ICAO CYGT (YGT)
Name Igloolik
Region Canada
Timezone America/Iqaluit (UTC-5.0)
Stats Elevation 98 ft / 30 m (AMSL)
Location 69.364800° -81.817100°
Runways 1
Magnetic Variation 27.289° W

METAR

CYGT 181400Z 34009KT 12SM SCT150 M27/M30 A2971 RMK AC3 SLP071

Decode

TAF

TAF CYGT 181238Z 1813/1822 34010KT P6SM FEW100 RMK NXT FCST BY 181900Z

Decode

Destination Runways

ID Width Length Bearing (true/mag) Surface Threshold Overrun Markings Lighting
15 98 ft / 30 m 4,502 ft / 1,372 m 145.64° / 172.92° DIRT 0 ft / 0 m 0 ft / 0 m NONE EDGE THRESHOLD
33 98 ft / 30 m 4,502 ft / 1,372 m 325.65° / 352.94° DIRT 0 ft / 0 m 0 ft / 0 m NONE EDGE THRESHOLD

Popular Alternatives